createdAt,value
2018-07-03T00:00:25.587Z,1.60
2018-07-03T00:02:53.388Z,1.50
2018-07-03T00:05:21.128Z,1.53
2018-07-03T00:07:48.831Z,1.63
2018-07-03T00:10:16.595Z,1.90
2018-07-03T00:12:44.339Z,1.97
2018-07-03T00:15:12.060Z,1.77
2018-07-03T00:17:39.899Z,1.30
2018-07-03T00:20:08.327Z,2.00
2018-07-03T00:22:36.063Z,1.70
2018-07-03T00:25:03.804Z,1.77
2018-07-03T00:27:31.496Z,1.90
2018-07-03T00:29:59.191Z,1.80
2018-07-03T00:32:26.876Z,1.70
2018-07-03T00:34:54.669Z,2.10
2018-07-03T00:37:22.424Z,1.90
2018-07-03T00:39:50.215Z,1.90
2018-07-03T00:42:17.908Z,1.87
2018-07-03T00:44:45.691Z,1.77
2018-07-03T00:47:13.495Z,1.80
2018-07-03T00:49:41.375Z,1.90
2018-07-03T00:52:09.140Z,1.80
2018-07-03T00:54:36.843Z,1.90
2018-07-03T00:57:04.772Z,1.53
2018-07-03T00:59:32.557Z,1.60
2018-07-03T01:02:00.267Z,1.60
2018-07-03T01:04:27.980Z,1.87
2018-07-03T01:06:55.728Z,1.57
2018-07-03T01:09:23.521Z,1.67
2018-07-03T01:11:51.312Z,1.80
2018-07-03T01:14:19.048Z,1.70
2018-07-03T01:16:46.801Z,1.60
2018-07-03T01:19:14.568Z,1.70
2018-07-03T01:21:42.373Z,1.70
2018-07-03T01:24:10.120Z,1.43
2018-07-03T01:26:37.840Z,1.40
2018-07-03T01:29:05.564Z,1.33
2018-07-03T01:31:33.295Z,1.63
2018-07-03T01:34:01.135Z,1.17
2018-07-03T01:36:28.880Z,1.30
2018-07-03T01:38:56.700Z,1.30
2018-07-03T01:41:24.476Z,1.50
2018-07-03T01:43:52.187Z,1.40
2018-07-03T01:46:19.940Z,1.47
2018-07-03T01:48:47.648Z,1.50
2018-07-03T01:51:15.336Z,1.20
2018-07-03T01:53:43.032Z,1.20
2018-07-03T01:56:10.811Z,1.10
2018-07-03T01:58:38.548Z,1.17
2018-07-03T02:01:06.305Z,1.20
2018-07-03T02:03:33.843Z,1.30
2018-07-03T02:06:01.371Z,1.17
2018-07-03T02:08:28.880Z,1.30
2018-07-03T02:10:56.411Z,1.33
2018-07-03T02:13:23.918Z,1.30
2018-07-03T02:15:51.455Z,1.43
2018-07-03T02:18:18.960Z,1.20
2018-07-03T02:20:46.482Z,1.17
2018-07-03T02:23:14.012Z,1.10
2018-07-03T02:25:41.523Z,1.30
2018-07-03T02:28:09.032Z,1.10
2018-07-03T02:30:36.567Z,1.47
2018-07-03T02:33:04.107Z,1.30
2018-07-03T02:35:31.635Z,1.07
2018-07-03T02:37:59.156Z,1.10
2018-07-03T02:40:26.667Z,1.07
2018-07-03T02:42:54.184Z,1.30
2018-07-03T02:45:21.704Z,1.20
2018-07-03T02:47:49.234Z,1.40
2018-07-03T02:50:16.748Z,1.27
2018-07-03T02:52:44.267Z,1.43
2018-07-03T02:55:11.796Z,1.10
2018-07-03T02:57:39.307Z,1.27
2018-07-03T03:00:07.038Z,1.13
2018-07-03T03:02:34.562Z,1.20
2018-07-03T03:05:02.083Z,1.23
2018-07-03T03:07:29.635Z,1.10
2018-07-03T03:09:57.155Z,1.10
2018-07-03T03:12:24.674Z,1.20
2018-07-03T03:14:52.186Z,1.27
2018-07-03T03:17:19.707Z,1.30
2018-07-03T03:19:47.239Z,1.30
2018-07-03T03:22:14.751Z,1.20
2018-07-03T03:24:42.267Z,1.33
2018-07-03T03:27:09.779Z,1.30
2018-07-03T03:29:37.295Z,0.87
2018-07-03T03:32:04.823Z,1.07
2018-07-03T03:34:32.327Z,1.30
2018-07-03T03:36:59.854Z,1.30
2018-07-03T03:39:27.359Z,1.30
2018-07-03T03:41:54.870Z,1.47
2018-07-03T03:44:22.400Z,1.40
2018-07-03T03:46:49.918Z,1.70
2018-07-03T03:49:17.431Z,1.57
2018-07-03T03:51:44.951Z,1.70
2018-07-03T03:54:12.643Z,1.40
2018-07-03T03:56:40.167Z,1.47
2018-07-03T03:59:07.670Z,1.80
2018-07-03T04:01:35.208Z,1.53
2018-07-03T04:04:02.730Z,1.80
2018-07-03T04:06:30.263Z,1.70
2018-07-03T04:08:57.779Z,1.90
2018-07-03T04:11:25.296Z,1.93
2018-07-03T04:13:52.960Z,1.83
2018-07-03T04:16:20.479Z,2.00
2018-07-03T04:18:48.015Z,1.90
2018-07-03T04:21:15.562Z,1.90
2018-07-03T04:23:43.065Z,1.80
2018-07-03T04:26:10.588Z,2.20
2018-07-03T04:28:38.095Z,3.20
2018-07-03T04:31:05.637Z,3.20
2018-07-03T04:33:33.144Z,3.10
2018-07-03T04:36:00.674Z,2.87
2018-07-03T04:38:28.250Z,2.23
2018-07-03T04:40:55.772Z,2.70
2018-07-03T04:43:23.294Z,2.43
2018-07-03T04:45:50.991Z,2.00
2018-07-03T04:48:18.530Z,2.07
2018-07-03T04:50:46.062Z,1.87
2018-07-03T04:53:13.590Z,1.77
2018-07-03T04:55:41.111Z,1.30
2018-07-03T04:58:08.631Z,1.60
2018-07-03T05:00:36.161Z,1.30
2018-07-03T05:03:03.708Z,1.65
2018-07-03T05:05:31.243Z,1.60
2018-07-03T05:07:58.767Z,1.62
2018-07-03T05:10:26.286Z,1.60
2018-07-03T05:12:53.800Z,1.80
2018-07-03T05:15:21.335Z,1.80
2018-07-03T05:17:49.079Z,1.87
2018-07-03T05:20:16.603Z,2.25
2018-07-03T05:22:44.143Z,2.40
2018-07-03T05:25:11.667Z,2.22
2018-07-03T05:27:39.199Z,2.52
2018-07-03T05:30:07.270Z,2.58
2018-07-03T05:32:34.799Z,2.60
2018-07-03T05:35:02.497Z,2.80
2018-07-03T05:37:30.083Z,3.10
2018-07-03T05:39:57.698Z,3.72
2018-07-03T05:42:25.231Z,3.67
2018-07-03T05:44:52.799Z,3.30
2018-07-03T05:47:20.408Z,3.58
2018-07-03T05:49:48.038Z,3.30
2018-07-03T05:52:15.482Z,3.42
2018-07-03T05:54:43.008Z,4.00
2018-07-03T05:57:10.602Z,3.08
2018-07-03T05:59:38.119Z,3.10
2018-07-03T06:02:06.147Z,2.83
2018-07-03T06:04:33.663Z,3.00
2018-07-03T06:07:01.193Z,3.17
2018-07-03T06:09:28.735Z,2.80
2018-07-03T06:11:56.271Z,2.80
2018-07-03T06:14:23.798Z,2.80
2018-07-03T06:16:55.224Z,2.80
2018-07-03T06:19:23.900Z,2.98
2018-07-03T06:21:52.067Z,2.80
2018-07-03T06:24:19.592Z,2.90
2018-07-03T06:26:47.307Z,2.98
2018-07-03T06:29:14.827Z,2.70
2018-07-03T06:31:42.346Z,2.40
2018-07-03T06:34:10.297Z,2.58
2018-07-03T06:36:37.630Z,2.60
2018-07-03T06:39:09.255Z,2.40
2018-07-03T06:41:36.826Z,2.70
2018-07-03T06:44:04.391Z,2.90
2018-07-03T06:46:31.948Z,2.83
2018-07-03T06:48:59.451Z,2.85
2018-07-03T06:51:27.067Z,2.20
2018-07-03T06:53:54.875Z,2.50
2018-07-03T06:56:22.386Z,2.30
2018-07-03T06:58:49.902Z,2.20
2018-07-03T07:01:17.419Z,2.20
2018-07-03T07:03:44.951Z,2.30
2018-07-03T07:06:12.559Z,2.40
2018-07-03T07:08:40.156Z,2.27
2018-07-03T07:11:07.606Z,2.20
2018-07-03T07:13:35.202Z,2.10
2018-07-03T07:16:02.727Z,2.12
2018-07-03T07:18:30.252Z,1.80
2018-07-03T07:20:57.771Z,1.90
2018-07-03T07:23:25.287Z,1.80
2018-07-03T07:25:52.810Z,2.15
2018-07-03T07:28:42.157Z,1.95
2018-07-03T07:31:09.689Z,2.00
2018-07-03T07:33:37.219Z,1.80
2018-07-03T07:36:04.747Z,2.02
2018-07-03T07:38:32.282Z,1.90
2018-07-03T07:40:59.803Z,1.67
2018-07-03T07:43:27.331Z,1.50
2018-07-03T07:45:55.032Z,1.52
2018-07-03T07:48:22.571Z,1.60
2018-07-03T07:50:50.086Z,1.62
2018-07-03T07:53:17.648Z,1.60
2018-07-03T07:55:45.167Z,1.67
2018-07-03T07:58:12.684Z,1.40
2018-07-03T08:00:40.211Z,1.42
2018-07-03T08:03:07.735Z,1.45
2018-07-03T08:05:35.263Z,1.50
2018-07-03T08:08:02.795Z,1.47
2018-07-03T08:10:30.324Z,1.30
2018-07-03T08:12:57.859Z,1.25
2018-07-03T08:15:25.464Z,1.40
2018-07-03T08:18:14.683Z,1.37
2018-07-03T08:20:42.217Z,1.45
2018-07-03T08:23:09.772Z,1.30
2018-07-03T08:25:37.283Z,1.27
2018-07-03T08:28:04.825Z,1.50
2018-07-03T08:30:32.331Z,1.40
2018-07-03T08:32:59.863Z,1.20
2018-07-03T08:35:27.375Z,1.52
2018-07-03T08:37:54.902Z,1.40
2018-07-03T08:40:22.415Z,1.37
2018-07-03T08:42:49.947Z,1.30
2018-07-03T08:45:17.482Z,1.30
2018-07-03T08:47:45.005Z,1.40
2018-07-03T08:50:15.783Z,1.47
2018-07-03T08:52:43.300Z,1.32
2018-07-03T08:55:10.921Z,1.40
2018-07-03T08:57:38.396Z,1.65
2018-07-03T09:00:06.915Z,1.40
2018-07-03T09:02:34.483Z,1.52
2018-07-03T09:05:02.018Z,1.67
2018-07-03T09:07:29.544Z,1.55
2018-07-03T09:09:57.075Z,1.60
2018-07-03T09:12:24.603Z,1.35
2018-07-03T09:14:52.132Z,1.50
2018-07-03T09:17:25.359Z,1.40
2018-07-03T09:19:52.899Z,1.50
2018-07-03T09:22:20.526Z,1.55
2018-07-03T09:24:49.074Z,1.60
2018-07-03T09:27:16.671Z,1.60
2018-07-03T09:29:44.199Z,1.55
2018-07-03T09:32:11.715Z,1.57
2018-07-03T09:34:39.234Z,1.72
2018-07-03T09:37:06.771Z,1.62
2018-07-03T09:39:34.298Z,1.60
2018-07-03T09:42:07.243Z,1.60
2018-07-03T09:44:34.768Z,1.85
2018-07-03T09:47:02.307Z,1.75
2018-07-03T09:49:29.856Z,1.55
2018-07-03T09:51:57.455Z,1.40
2018-07-03T09:54:24.982Z,1.22
2018-07-03T09:56:52.715Z,1.60
2018-07-03T09:59:20.250Z,1.50
2018-07-03T10:01:47.780Z,1.47
2018-07-03T10:04:15.328Z,1.60
2018-07-03T10:06:42.883Z,1.50
2018-07-03T10:09:11.299Z,1.65
2018-07-03T10:11:38.952Z,1.55
2018-07-03T10:14:06.727Z,1.40
2018-07-03T10:16:34.231Z,1.42
2018-07-03T10:19:01.768Z,1.60
2018-07-03T10:21:29.288Z,1.50
2018-07-03T10:23:56.815Z,1.50
2018-07-03T10:26:24.343Z,1.47
2018-07-03T10:28:52.068Z,1.40
2018-07-03T10:31:19.593Z,1.60
2018-07-03T10:33:47.127Z,1.30
2018-07-03T10:36:14.651Z,1.50
2018-07-03T10:38:42.171Z,1.50
2018-07-03T10:41:09.913Z,1.40
2018-07-03T10:43:37.419Z,1.70
2018-07-03T10:46:04.961Z,1.57
2018-07-03T10:48:32.478Z,1.62
2018-07-03T10:51:00.015Z,1.77
2018-07-03T10:53:27.560Z,1.55
2018-07-03T10:55:55.076Z,1.60
2018-07-03T10:58:22.615Z,1.42
2018-07-03T11:00:50.139Z,1.77
2018-07-03T11:03:17.695Z,1.67
2018-07-03T11:05:45.295Z,1.80
2018-07-03T11:08:12.775Z,1.60
2018-07-03T11:10:40.308Z,1.50
2018-07-03T11:13:07.903Z,1.40
2018-07-03T11:15:35.425Z,1.80
2018-07-03T11:18:02.933Z,1.60
2018-07-03T11:20:30.639Z,1.50
2018-07-03T11:22:58.184Z,1.50
2018-07-03T11:25:25.718Z,1.40
2018-07-03T11:27:53.243Z,1.70
2018-07-03T11:30:20.772Z,1.70
2018-07-03T11:32:48.315Z,1.52
2018-07-03T11:35:15.867Z,1.50
2018-07-03T11:37:43.411Z,1.55
2018-07-03T11:40:10.930Z,1.40
2018-07-03T11:42:38.460Z,1.50
2018-07-03T11:45:05.982Z,1.70
2018-07-03T11:47:33.508Z,1.57
2018-07-03T11:50:01.047Z,1.57
2018-07-03T11:52:28.890Z,1.70
2018-07-03T11:54:56.423Z,1.50
2018-07-03T11:57:23.991Z,1.50
2018-07-03T11:59:51.521Z,1.62
2018-07-03T12:02:19.062Z,1.50
2018-07-03T12:04:46.684Z,1.47
2018-07-03T12:07:14.194Z,1.27
2018-07-03T12:09:41.727Z,1.40
2018-07-03T12:12:09.251Z,1.65
2018-07-03T12:14:36.776Z,1.52
2018-07-03T12:17:04.325Z,1.40
2018-07-03T12:19:31.868Z,1.30
2018-07-03T12:21:59.415Z,1.32
2018-07-03T12:24:26.946Z,1.50
2018-07-03T12:26:54.472Z,1.57
2018-07-03T12:29:22.007Z,1.30
2018-07-03T12:31:49.519Z,1.37
2018-07-03T12:34:17.027Z,1.55
2018-07-03T12:36:44.553Z,1.52
2018-07-03T12:39:12.344Z,1.57
2018-07-03T12:41:39.895Z,1.60
2018-07-03T12:44:07.700Z,1.42
2018-07-03T12:46:35.443Z,1.80
2018-07-03T12:49:02.999Z,1.70
2018-07-03T12:51:30.584Z,1.57
2018-07-03T12:53:58.123Z,1.60
2018-07-03T12:56:25.654Z,1.50
2018-07-03T12:58:53.743Z,1.60
2018-07-03T13:01:21.278Z,1.70
2018-07-03T13:03:48.828Z,1.50
2018-07-03T13:06:16.391Z,1.57
2018-07-03T13:08:43.921Z,1.42
2018-07-03T13:11:11.431Z,1.40
2018-07-03T13:13:38.959Z,1.52
2018-07-03T13:16:06.482Z,1.60
2018-07-03T13:18:34.023Z,1.55
2018-07-03T13:21:01.560Z,1.40
2018-07-03T13:23:29.095Z,1.72
2018-07-03T13:25:56.626Z,1.90
2018-07-03T13:28:24.167Z,1.65
2018-07-03T13:30:51.679Z,1.55
2018-07-03T13:33:19.211Z,1.70
2018-07-03T13:35:46.728Z,1.90
2018-07-03T13:38:14.263Z,1.50
2018-07-03T13:40:41.802Z,1.80
2018-07-03T13:43:09.347Z,1.75
2018-07-03T13:45:36.879Z,1.70
2018-07-03T13:48:04.946Z,1.80
2018-07-03T13:50:32.460Z,1.60
2018-07-03T13:52:59.974Z,1.80
2018-07-03T13:55:27.670Z,1.62
2018-07-03T13:57:55.191Z,1.70
2018-07-03T14:00:22.755Z,1.70
2018-07-03T14:02:50.331Z,1.80
2018-07-03T14:05:24.223Z,1.90
2018-07-03T14:07:51.739Z,1.80
2018-07-03T14:10:23.019Z,1.90
2018-07-03T14:12:50.552Z,2.00
2018-07-03T14:15:18.099Z,2.00
2018-07-03T14:17:45.615Z,1.80
2018-07-03T14:20:13.160Z,2.10
2018-07-03T14:22:42.714Z,1.82
2018-07-03T14:25:10.258Z,1.95
2018-07-03T14:27:37.787Z,1.75
2018-07-03T14:30:05.335Z,2.00
2018-07-03T14:32:32.871Z,1.70
2018-07-03T14:35:00.391Z,2.10
2018-07-03T14:37:27.924Z,1.90
2018-07-03T14:39:55.455Z,1.90
2018-07-03T14:42:22.992Z,2.00
2018-07-03T14:45:03.427Z,2.00
2018-07-03T14:47:30.966Z,2.30
2018-07-03T14:49:58.486Z,2.10
2018-07-03T14:52:26.028Z,2.10
2018-07-03T14:54:53.560Z,2.30
2018-07-03T14:57:21.079Z,2.00
2018-07-03T14:59:48.599Z,2.02
2018-07-03T15:02:16.152Z,1.80
2018-07-03T15:04:43.675Z,1.80
2018-07-03T15:07:11.264Z,2.20
2018-07-03T15:09:38.842Z,2.10
2018-07-03T15:12:06.387Z,2.00
2018-07-03T15:14:33.951Z,2.15
2018-07-03T15:17:01.479Z,1.85
2018-07-03T15:19:34.943Z,1.98
2018-07-03T15:22:02.466Z,1.98
2018-07-03T15:24:30.012Z,2.08
2018-07-03T15:26:57.552Z,2.22
2018-07-03T15:29:25.079Z,2.15
2018-07-03T15:31:52.648Z,2.30
2018-07-03T15:34:20.142Z,1.62
2018-07-03T15:36:47.691Z,1.75
2018-07-03T15:39:15.225Z,1.87
2018-07-03T15:41:42.742Z,1.80
2018-07-03T15:44:27.927Z,1.80
2018-07-03T15:46:55.440Z,1.60
2018-07-03T15:49:22.946Z,1.65
2018-07-03T15:51:50.482Z,1.72
2018-07-03T15:54:18.004Z,1.60
2018-07-03T15:56:45.548Z,1.65
2018-07-03T15:59:13.071Z,1.75
2018-07-03T16:01:40.595Z,1.80
2018-07-03T16:04:59.719Z,1.82
2018-07-03T16:08:44.403Z,1.80
2018-07-03T16:11:11.939Z,1.65
2018-07-03T16:13:39.461Z,1.70
2018-07-03T16:16:07.234Z,1.80
2018-07-03T16:18:34.769Z,1.60
2018-07-03T16:21:02.303Z,1.80
2018-07-03T16:23:29.831Z,2.10
2018-07-03T16:25:57.359Z,1.70
2018-07-03T16:28:24.891Z,2.20
2018-07-03T16:30:52.411Z,1.80
2018-07-03T16:33:20.028Z,1.72
2018-07-03T16:35:47.487Z,1.60
2018-07-03T16:38:15.012Z,1.72
2018-07-03T16:40:42.545Z,1.50
2018-07-03T16:43:10.063Z,1.40
2018-07-03T16:45:37.599Z,1.50
2018-07-03T16:48:05.194Z,1.57
2018-07-03T16:50:32.695Z,2.15
2018-07-03T16:53:00.234Z,1.92
2018-07-03T16:55:27.748Z,1.50
2018-07-03T16:57:55.280Z,1.40
2018-07-03T17:00:27.198Z,2.20
2018-07-03T17:02:54.744Z,1.30
2018-07-03T17:05:22.722Z,1.40
2018-07-03T17:07:50.251Z,1.42
2018-07-03T17:10:17.783Z,1.50
2018-07-03T17:12:45.330Z,1.87
2018-07-03T17:15:12.887Z,1.50
2018-07-03T17:17:40.443Z,1.55
2018-07-03T17:20:07.995Z,3.80
2018-07-03T17:22:35.567Z,1.35
2018-07-03T17:25:03.355Z,1.60
2018-07-03T17:27:30.919Z,1.40
2018-07-03T17:29:58.449Z,1.20
2018-07-03T17:32:26.012Z,1.70
2018-07-03T17:34:53.541Z,1.05
2018-07-03T17:37:21.096Z,1.27
2018-07-03T17:40:06.414Z,1.30
2018-07-03T17:42:51.793Z,1.12
2018-07-03T17:45:46.404Z,1.20
2018-07-03T17:48:14.642Z,1.30
2018-07-03T17:50:42.207Z,1.45
2018-07-03T17:53:09.778Z,1.50
2018-07-03T17:55:37.342Z,1.20
2018-07-03T17:58:05.525Z,1.40
2018-07-03T18:00:44.352Z,1.57
2018-07-03T18:03:11.908Z,1.50
2018-07-03T18:05:39.442Z,1.60
2018-07-03T18:08:06.996Z,1.35
2018-07-03T18:10:34.564Z,1.62
2018-07-03T18:13:02.112Z,1.40
2018-07-03T18:15:29.663Z,1.60
2018-07-03T18:17:57.207Z,1.52
2018-07-03T18:20:24.787Z,1.82
2018-07-03T18:22:52.375Z,2.10
2018-07-03T18:25:19.943Z,1.98
2018-07-03T18:27:47.495Z,1.77
2018-07-03T18:30:15.063Z,1.80
2018-07-03T18:32:42.647Z,1.70
2018-07-03T18:35:10.195Z,1.57
2018-07-03T18:37:37.742Z,1.20
2018-07-03T18:40:05.610Z,1.60
2018-07-03T18:42:33.119Z,1.87
2018-07-03T18:45:01.003Z,1.35
2018-07-03T18:47:28.635Z,1.35
2018-07-03T18:49:56.079Z,1.42
2018-07-03T18:52:23.641Z,1.00
2018-07-03T18:54:51.201Z,1.10
2018-07-03T18:57:18.735Z,1.02
2018-07-03T18:59:46.295Z,1.10
2018-07-03T19:02:13.846Z,1.20
2018-07-03T19:04:41.423Z,1.02
2018-07-03T19:07:08.971Z,1.10
2018-07-03T19:09:36.511Z,1.05
2018-07-03T19:12:04.044Z,1.35
2018-07-03T19:14:31.595Z,1.30
2018-07-03T19:16:59.126Z,1.92
2018-07-03T19:19:26.664Z,1.27
2018-07-03T19:21:54.356Z,1.55
2018-07-03T19:24:29.139Z,1.42
2018-07-03T19:26:56.683Z,1.22
2018-07-03T19:29:24.203Z,1.37
2018-07-03T19:31:51.720Z,1.20
2018-07-03T19:34:19.291Z,1.25
2018-07-03T19:36:46.788Z,1.12
2018-07-03T19:39:14.319Z,1.12
2018-07-03T19:41:42.359Z,1.20
2018-07-03T19:44:10.131Z,1.25
2018-07-03T19:46:37.711Z,1.32
2018-07-03T19:49:05.307Z,1.02
2018-07-03T19:51:32.835Z,1.17
2018-07-03T19:54:00.442Z,0.90
2018-07-03T19:56:28.045Z,1.15
2018-07-03T19:58:56.401Z,1.20
2018-07-03T20:01:23.938Z,1.17
2018-07-03T20:03:51.471Z,1.10
2018-07-03T20:06:18.990Z,1.35
2018-07-03T20:08:46.535Z,1.57
2018-07-03T20:11:14.064Z,1.35
2018-07-03T20:13:41.628Z,1.50
2018-07-03T20:16:22.528Z,1.50
2018-07-03T20:18:50.095Z,1.52
2018-07-03T20:21:17.587Z,1.62
2018-07-03T20:23:45.121Z,1.42
2018-07-03T20:26:12.639Z,1.80
2018-07-03T20:28:40.166Z,1.45
2018-07-03T20:31:07.893Z,1.67
2018-07-03T20:33:48.251Z,1.40
2018-07-03T20:36:15.760Z,1.10
2018-07-03T20:38:43.279Z,1.10
2018-07-03T20:47:27.650Z,1.53
2018-07-03T20:49:55.162Z,1.40
2018-07-03T20:52:22.680Z,1.30
2018-07-03T20:54:50.209Z,1.60
2018-07-03T20:57:17.797Z,1.40
2018-07-03T20:59:45.319Z,1.30
2018-07-03T21:02:12.816Z,1.30
2018-07-03T21:04:40.458Z,1.37
2018-07-03T21:07:07.843Z,1.60
2018-07-03T21:09:35.364Z,1.50
2018-07-03T21:12:02.877Z,1.50
2018-07-03T21:14:30.383Z,1.40
2018-07-03T21:16:57.968Z,1.20
2018-07-03T21:19:25.427Z,1.53
2018-07-03T21:21:53.618Z,1.60
2018-07-03T21:24:21.138Z,1.53
2018-07-03T21:26:48.663Z,1.60
2018-07-03T21:29:16.166Z,1.50
2018-07-03T21:31:43.719Z,1.50
2018-07-03T21:34:18.071Z,1.57
2018-07-03T21:36:53.162Z,1.60
2018-07-03T21:39:24.160Z,1.30
2018-07-03T21:41:51.808Z,1.60
2018-07-03T21:44:23.025Z,1.60
2018-07-03T21:46:50.511Z,1.63
2018-07-03T21:49:18.053Z,1.30
2018-07-03T21:51:45.568Z,1.93
2018-07-03T21:54:34.671Z,2.17
2018-07-03T21:57:14.728Z,1.80
2018-07-03T21:59:42.338Z,1.87
2018-07-03T22:02:19.912Z,1.90
2018-07-03T22:04:50.995Z,1.90
2018-07-03T22:07:18.503Z,1.60
2018-07-03T22:09:46.036Z,1.90
2018-07-03T22:12:13.543Z,2.10
2018-07-03T22:14:41.803Z,2.10
2018-07-03T22:17:10.387Z,1.80
2018-07-03T22:19:37.911Z,1.80
2018-07-03T22:22:05.571Z,1.80
2018-07-03T22:24:33.783Z,1.80
2018-07-03T22:27:01.347Z,1.60
2018-07-03T22:29:28.886Z,1.67
2018-07-03T22:31:56.403Z,1.93
2018-07-03T22:34:23.923Z,1.87
2018-07-03T22:36:51.452Z,1.93
2018-07-03T22:39:19.023Z,1.87
2018-07-03T22:41:46.522Z,1.73
2018-07-03T22:44:14.267Z,2.10
2018-07-03T22:46:41.803Z,1.93
2018-07-03T22:49:09.319Z,2.23
2018-07-03T22:51:37.043Z,2.17
2018-07-03T22:54:04.627Z,2.30
2018-07-03T22:56:32.150Z,2.63
2018-07-03T22:58:59.827Z,2.37
2018-07-03T23:01:27.347Z,2.30
2018-07-03T23:03:54.891Z,2.20
2018-07-03T23:06:22.432Z,2.20
2018-07-03T23:08:50.062Z,1.97
2018-07-03T23:11:17.588Z,2.00
2018-07-03T23:13:45.080Z,1.70
2018-07-03T23:16:12.597Z,1.90
2018-07-03T23:18:40.110Z,2.00
2018-07-03T23:21:07.866Z,2.00
2018-07-03T23:23:35.376Z,2.20
2018-07-03T23:26:02.888Z,1.97
2018-07-03T23:28:30.407Z,1.93
2018-07-03T23:30:57.933Z,1.70
2018-07-03T23:33:25.430Z,2.00
2018-07-03T23:35:52.952Z,2.27
2018-07-03T23:38:20.468Z,1.77
2018-07-03T23:40:47.999Z,2.07
2018-07-03T23:43:15.502Z,2.33
2018-07-03T23:45:48.926Z,1.73
2018-07-03T23:48:34.181Z,1.80
2018-07-03T23:51:19.963Z,2.13
2018-07-03T23:54:05.120Z,1.80
2018-07-03T23:56:51.156Z,1.80
2018-07-03T23:59:36.122Z,1.70
